sensor_id;sensor_type;location;lat;lon;timestamp;P1;durP1;ratioP1;P2;durP2;ratioP2
7983;SDS011;4037;47.980;10.172;2023-11-21T00:00:26;5.63;;;1.63;;
7983;SDS011;4037;47.980;10.172;2023-11-21T00:02:52;5.27;;;1.80;;
7983;SDS011;4037;47.980;10.172;2023-11-21T00:05:18;2.93;;;1.53;;
7983;SDS011;4037;47.980;10.172;2023-11-21T00:07:44;2.47;;;2.27;;
7983;SDS011;4037;47.980;10.172;2023-11-21T00:10:11;3.03;;;1.50;;
7983;SDS011;4037;47.980;10.172;2023-11-21T00:12:39;1.57;;;1.20;;
7983;SDS011;4037;47.980;10.172;2023-11-21T00:15:07;2.57;;;1.20;;
7983;SDS011;4037;47.980;10.172;2023-11-21T00:17:36;2.30;;;1.30;;
7983;SDS011;4037;47.980;10.172;2023-11-21T00:20:03;6.37;;;1.60;;
7983;SDS011;4037;47.980;10.172;2023-11-21T00:22:31;3.03;;;1.30;;
7983;SDS011;4037;47.980;10.172;2023-11-21T00:24:57;3.43;;;1.60;;
7983;SDS011;4037;47.980;10.172;2023-11-21T00:27:23;2.63;;;1.70;;
7983;SDS011;4037;47.980;10.172;2023-11-21T00:29:49;1.73;;;1.30;;
7983;SDS011;4037;47.980;10.172;2023-11-21T00:32:15;2.00;;;1.30;;
7983;SDS011;4037;47.980;10.172;2023-11-21T00:34:41;3.47;;;1.43;;
7983;SDS011;4037;47.980;10.172;2023-11-21T00:37:07;2.27;;;1.63;;
7983;SDS011;4037;47.980;10.172;2023-11-21T00:39:33;4.27;;;1.60;;
7983;SDS011;4037;47.980;10.172;2023-11-21T00:42:00;2.20;;;1.50;;
7983;SDS011;4037;47.980;10.172;2023-11-21T00:44:26;3.87;;;1.53;;
7983;SDS011;4037;47.980;10.172;2023-11-21T00:46:52;6.53;;;1.53;;
7983;SDS011;4037;47.980;10.172;2023-11-21T00:49:19;2.77;;;1.47;;
7983;SDS011;4037;47.980;10.172;2023-11-21T00:51:45;3.60;;;1.57;;
7983;SDS011;4037;47.980;10.172;2023-11-21T00:54:11;3.37;;;1.40;;
7983;SDS011;4037;47.980;10.172;2023-11-21T00:56:37;4.63;;;1.70;;
7983;SDS011;4037;47.980;10.172;2023-11-21T00:59:05;6.43;;;1.67;;
7983;SDS011;4037;47.980;10.172;2023-11-21T01:01:32;3.33;;;1.40;;
7983;SDS011;4037;47.980;10.172;2023-11-21T01:03:58;8.37;;;1.67;;
7983;SDS011;4037;47.980;10.172;2023-11-21T01:06:24;7.30;;;1.73;;
7983;SDS011;4037;47.980;10.172;2023-11-21T01:08:50;3.23;;;1.37;;
7983;SDS011;4037;47.980;10.172;2023-11-21T01:11:16;5.40;;;1.60;;
7983;SDS011;4037;47.980;10.172;2023-11-21T01:13:42;3.00;;;1.40;;
7983;SDS011;4037;47.980;10.172;2023-11-21T01:16:09;2.47;;;1.63;;
7983;SDS011;4037;47.980;10.172;2023-11-21T01:18:36;5.80;;;1.70;;
7983;SDS011;4037;47.980;10.172;2023-11-21T01:21:02;5.70;;;1.90;;
7983;SDS011;4037;47.980;10.172;2023-11-21T01:23:29;1.77;;;1.03;;
7983;SDS011;4037;47.980;10.172;2023-11-21T01:25:58;2.93;;;1.40;;
7983;SDS011;4037;47.980;10.172;2023-11-21T01:28:24;1.60;;;1.30;;
7983;SDS011;4037;47.980;10.172;2023-11-21T01:30:50;3.07;;;1.10;;
7983;SDS011;4037;47.980;10.172;2023-11-21T01:33:16;3.27;;;1.40;;
7983;SDS011;4037;47.980;10.172;2023-11-21T01:35:42;4.30;;;1.20;;
7983;SDS011;4037;47.980;10.172;2023-11-21T01:38:08;2.70;;;1.10;;
7983;SDS011;4037;47.980;10.172;2023-11-21T01:40:34;3.40;;;1.23;;
7983;SDS011;4037;47.980;10.172;2023-11-21T01:43:00;3.10;;;1.20;;
7983;SDS011;4037;47.980;10.172;2023-11-21T01:45:30;4.40;;;1.43;;
7983;SDS011;4037;47.980;10.172;2023-11-21T01:47:58;4.70;;;1.37;;
7983;SDS011;4037;47.980;10.172;2023-11-21T01:50:25;1.63;;;1.23;;
7983;SDS011;4037;47.980;10.172;2023-11-21T01:52:51;2.87;;;1.00;;
7983;SDS011;4037;47.980;10.172;2023-11-21T01:55:18;1.00;;;0.90;;
7983;SDS011;4037;47.980;10.172;2023-11-21T01:57:45;4.73;;;1.53;;
7983;SDS011;4037;47.980;10.172;2023-11-21T02:00:11;3.63;;;1.20;;
7983;SDS011;4037;47.980;10.172;2023-11-21T02:02:43;2.63;;;1.53;;
7983;SDS011;4037;47.980;10.172;2023-11-21T02:05:10;1.13;;;1.07;;
7983;SDS011;4037;47.980;10.172;2023-11-21T02:07:37;2.33;;;1.20;;
7983;SDS011;4037;47.980;10.172;2023-11-21T02:10:03;1.00;;;1.00;;
7983;SDS011;4037;47.980;10.172;2023-11-21T02:12:30;1.30;;;1.20;;
7983;SDS011;4037;47.980;10.172;2023-11-21T02:14:56;3.10;;;1.10;;
7983;SDS011;4037;47.980;10.172;2023-11-21T02:17:21;3.63;;;1.40;;
7983;SDS011;4037;47.980;10.172;2023-11-21T02:19:48;3.67;;;1.43;;
7983;SDS011;4037;47.980;10.172;2023-11-21T02:22:16;4.37;;;1.20;;
7983;SDS011;4037;47.980;10.172;2023-11-21T02:24:42;2.33;;;1.10;;
7983;SDS011;4037;47.980;10.172;2023-11-21T02:27:09;1.20;;;1.10;;
7983;SDS011;4037;47.980;10.172;2023-11-21T02:29:35;1.77;;;1.10;;
7983;SDS011;4037;47.980;10.172;2023-11-21T02:32:01;2.70;;;1.40;;
7983;SDS011;4037;47.980;10.172;2023-11-21T02:34:27;2.07;;;1.50;;
7983;SDS011;4037;47.980;10.172;2023-11-21T02:36:53;1.53;;;1.30;;
7983;SDS011;4037;47.980;10.172;2023-11-21T02:39:19;2.23;;;1.07;;
7983;SDS011;4037;47.980;10.172;2023-11-21T02:41:49;3.87;;;1.30;;
7983;SDS011;4037;47.980;10.172;2023-11-21T02:44:15;3.50;;;1.33;;
7983;SDS011;4037;47.980;10.172;2023-11-21T02:46:41;3.90;;;1.53;;
7983;SDS011;4037;47.980;10.172;2023-11-21T02:49:07;4.47;;;1.60;;
7983;SDS011;4037;47.980;10.172;2023-11-21T02:51:35;3.80;;;1.63;;
7983;SDS011;4037;47.980;10.172;2023-11-21T02:54:03;6.53;;;1.80;;
7983;SDS011;4037;47.980;10.172;2023-11-21T02:56:31;2.10;;;1.30;;
7983;SDS011;4037;47.980;10.172;2023-11-21T02:58:59;8.27;;;1.43;;
7983;SDS011;4037;47.980;10.172;2023-11-21T03:01:25;2.70;;;1.40;;
7983;SDS011;4037;47.980;10.172;2023-11-21T03:03:52;1.07;;;1.03;;
7983;SDS011;4037;47.980;10.172;2023-11-21T03:06:18;1.20;;;1.10;;
7983;SDS011;4037;47.980;10.172;2023-11-21T03:08:44;1.20;;;1.10;;
7983;SDS011;4037;47.980;10.172;2023-11-21T03:11:10;1.30;;;1.20;;
7983;SDS011;4037;47.980;10.172;2023-11-21T03:13:38;2.20;;;0.90;;
7983;SDS011;4037;47.980;10.172;2023-11-21T03:16:04;1.93;;;1.13;;
7983;SDS011;4037;47.980;10.172;2023-11-21T03:18:31;3.33;;;0.90;;
7983;SDS011;4037;47.980;10.172;2023-11-21T03:20:57;3.37;;;1.20;;
7983;SDS011;4037;47.980;10.172;2023-11-21T03:23:23;1.00;;;1.00;;
7983;SDS011;4037;47.980;10.172;2023-11-21T03:25:49;1.27;;;1.17;;
7983;SDS011;4037;47.980;10.172;2023-11-21T03:28:15;1.73;;;1.30;;
7983;SDS011;4037;47.980;10.172;2023-11-21T03:30:41;2.43;;;1.30;;
7983;SDS011;4037;47.980;10.172;2023-11-21T03:33:07;5.20;;;1.33;;
7983;SDS011;4037;47.980;10.172;2023-11-21T03:35:33;2.23;;;1.47;;
7983;SDS011;4037;47.980;10.172;2023-11-21T03:37:59;1.50;;;1.23;;
7983;SDS011;4037;47.980;10.172;2023-11-21T03:40:25;0.97;;;0.97;;
7983;SDS011;4037;47.980;10.172;2023-11-21T03:42:50;1.30;;;1.20;;
7983;SDS011;4037;47.980;10.172;2023-11-21T03:45:17;1.17;;;1.07;;
7983;SDS011;4037;47.980;10.172;2023-11-21T03:47:43;3.97;;;1.03;;
7983;SDS011;4037;47.980;10.172;2023-11-21T03:50:09;1.07;;;1.03;;
7983;SDS011;4037;47.980;10.172;2023-11-21T03:52:35;3.03;;;1.27;;
7983;SDS011;4037;47.980;10.172;2023-11-21T03:55:01;1.00;;;1.00;;
7983;SDS011;4037;47.980;10.172;2023-11-21T03:57:27;2.20;;;1.30;;
7983;SDS011;4037;47.980;10.172;2023-11-21T03:59:53;1.13;;;1.10;;
7983;SDS011;4037;47.980;10.172;2023-11-21T04:02:19;1.40;;;1.20;;
7983;SDS011;4037;47.980;10.172;2023-11-21T04:04:46;2.00;;;1.13;;
7983;SDS011;4037;47.980;10.172;2023-11-21T04:07:12;1.07;;;1.00;;
7983;SDS011;4037;47.980;10.172;2023-11-21T04:09:38;1.00;;;1.00;;
7983;SDS011;4037;47.980;10.172;2023-11-21T04:12:06;0.90;;;0.90;;
7983;SDS011;4037;47.980;10.172;2023-11-21T04:14:34;3.17;;;1.10;;
7983;SDS011;4037;47.980;10.172;2023-11-21T04:17:00;1.20;;;1.10;;
7983;SDS011;4037;47.980;10.172;2023-11-21T04:19:26;1.50;;;1.07;;
7983;SDS011;4037;47.980;10.172;2023-11-21T04:21:51;1.20;;;1.10;;
7983;SDS011;4037;47.980;10.172;2023-11-21T04:24:18;1.80;;;1.00;;
7983;SDS011;4037;47.980;10.172;2023-11-21T04:26:44;1.60;;;1.13;;
7983;SDS011;4037;47.980;10.172;2023-11-21T04:29:10;3.33;;;1.40;;
7983;SDS011;4037;47.980;10.172;2023-11-21T04:31:36;2.93;;;1.10;;
7983;SDS011;4037;47.980;10.172;2023-11-21T04:34:02;1.77;;;1.10;;
7983;SDS011;4037;47.980;10.172;2023-11-21T04:36:31;1.00;;;1.00;;
7983;SDS011;4037;47.980;10.172;2023-11-21T04:38:57;1.73;;;0.90;;
7983;SDS011;4037;47.980;10.172;2023-11-21T04:41:23;1.90;;;1.10;;
7983;SDS011;4037;47.980;10.172;2023-11-21T04:43:49;1.73;;;1.43;;
7983;SDS011;4037;47.980;10.172;2023-11-21T04:46:15;1.07;;;1.03;;
7983;SDS011;4037;47.980;10.172;2023-11-21T04:48:41;1.07;;;0.83;;
7983;SDS011;4037;47.980;10.172;2023-11-21T04:51:07;1.23;;;1.00;;
7983;SDS011;4037;47.980;10.172;2023-11-21T04:53:33;2.83;;;1.23;;
7983;SDS011;4037;47.980;10.172;2023-11-21T04:56:00;1.30;;;1.13;;
7983;SDS011;4037;47.980;10.172;2023-11-21T04:58:26;1.30;;;1.00;;
7983;SDS011;4037;47.980;10.172;2023-11-21T05:00:52;1.13;;;1.03;;
7983;SDS011;4037;47.980;10.172;2023-11-21T05:03:18;1.93;;;1.10;;
7983;SDS011;4037;47.980;10.172;2023-11-21T05:05:44;1.00;;;1.00;;
7983;SDS011;4037;47.980;10.172;2023-11-21T05:08:10;1.80;;;1.20;;
7983;SDS011;4037;47.980;10.172;2023-11-21T05:10:35;1.70;;;1.20;;
7983;SDS011;4037;47.980;10.172;2023-11-21T05:13:04;1.10;;;0.90;;
7983;SDS011;4037;47.980;10.172;2023-11-21T05:15:34;1.93;;;1.00;;
7983;SDS011;4037;47.980;10.172;2023-11-21T05:18:00;0.90;;;0.90;;
7983;SDS011;4037;47.980;10.172;2023-11-21T05:20:26;2.53;;;1.40;;
7983;SDS011;4037;47.980;10.172;2023-11-21T05:22:52;1.20;;;1.10;;
7983;SDS011;4037;47.980;10.172;2023-11-21T05:25:18;1.23;;;1.20;;
7983;SDS011;4037;47.980;10.172;2023-11-21T05:27:47;0.90;;;0.90;;
7983;SDS011;4037;47.980;10.172;2023-11-21T05:30:14;1.50;;;1.40;;
7983;SDS011;4037;47.980;10.172;2023-11-21T05:32:40;1.73;;;1.20;;
7983;SDS011;4037;47.980;10.172;2023-11-21T05:35:11;1.83;;;1.30;;
7983;SDS011;4037;47.980;10.172;2023-11-21T05:37:40;2.80;;;1.77;;
7983;SDS011;4037;47.980;10.172;2023-11-21T05:40:07;1.57;;;1.00;;
7983;SDS011;4037;47.980;10.172;2023-11-21T05:42:33;2.03;;;1.17;;
7983;SDS011;4037;47.980;10.172;2023-11-21T05:44:59;2.20;;;1.10;;
7983;SDS011;4037;47.980;10.172;2023-11-21T05:47:38;1.43;;;1.33;;
7983;SDS011;4037;47.980;10.172;2023-11-21T05:50:05;2.10;;;1.30;;
7983;SDS011;4037;47.980;10.172;2023-11-21T05:52:34;0.70;;;0.70;;
7983;SDS011;4037;47.980;10.172;2023-11-21T05:55:00;3.13;;;1.10;;
7983;SDS011;4037;47.980;10.172;2023-11-21T05:57:26;4.83;;;1.67;;
7983;SDS011;4037;47.980;10.172;2023-11-21T05:59:52;3.10;;;1.50;;
7983;SDS011;4037;47.980;10.172;2023-11-21T06:02:18;1.97;;;1.50;;
7983;SDS011;4037;47.980;10.172;2023-11-21T06:04:44;1.53;;;1.17;;
7983;SDS011;4037;47.980;10.172;2023-11-21T06:07:10;2.87;;;1.57;;
7983;SDS011;4037;47.980;10.172;2023-11-21T06:09:37;2.13;;;1.53;;
7983;SDS011;4037;47.980;10.172;2023-11-21T06:12:03;2.50;;;1.60;;
7983;SDS011;4037;47.980;10.172;2023-11-21T06:14:29;4.20;;;1.50;;
7983;SDS011;4037;47.980;10.172;2023-11-21T06:16:55;1.93;;;1.40;;
7983;SDS011;4037;47.980;10.172;2023-11-21T06:19:22;2.70;;;1.50;;
7983;SDS011;4037;47.980;10.172;2023-11-21T06:21:48;2.00;;;1.20;;
7983;SDS011;4037;47.980;10.172;2023-11-21T06:24:14;2.80;;;1.60;;
7983;SDS011;4037;47.980;10.172;2023-11-21T06:26:40;5.53;;;1.50;;
7983;SDS011;4037;47.980;10.172;2023-11-21T06:29:06;1.57;;;1.47;;
7983;SDS011;4037;47.980;10.172;2023-11-21T06:31:32;1.93;;;1.27;;
7983;SDS011;4037;47.980;10.172;2023-11-21T06:33:58;2.77;;;1.13;;
7983;SDS011;4037;47.980;10.172;2023-11-21T06:36:28;4.73;;;1.77;;
7983;SDS011;4037;47.980;10.172;2023-11-21T06:38:54;1.83;;;1.70;;
7983;SDS011;4037;47.980;10.172;2023-11-21T06:41:20;2.23;;;1.60;;
7983;SDS011;4037;47.980;10.172;2023-11-21T06:43:46;2.07;;;1.63;;
7983;SDS011;4037;47.980;10.172;2023-11-21T06:46:13;4.80;;;1.70;;
7983;SDS011;4037;47.980;10.172;2023-11-21T06:48:41;1.93;;;1.63;;
7983;SDS011;4037;47.980;10.172;2023-11-21T06:51:08;2.23;;;1.77;;
7983;SDS011;4037;47.980;10.172;2023-11-21T06:53:34;4.87;;;2.00;;
7983;SDS011;4037;47.980;10.172;2023-11-21T06:56:01;4.00;;;1.40;;
7983;SDS011;4037;47.980;10.172;2023-11-21T06:58:27;1.60;;;1.50;;
7983;SDS011;4037;47.980;10.172;2023-11-21T07:00:53;3.07;;;1.83;;
7983;SDS011;4037;47.980;10.172;2023-11-21T07:03:19;2.50;;;1.50;;
7983;SDS011;4037;47.980;10.172;2023-11-21T07:05:45;3.70;;;1.60;;
7983;SDS011;4037;47.980;10.172;2023-11-21T07:08:11;2.90;;;2.07;;
7983;SDS011;4037;47.980;10.172;2023-11-21T07:10:37;1.63;;;1.53;;
7983;SDS011;4037;47.980;10.172;2023-11-21T07:13:03;3.77;;;1.73;;
7983;SDS011;4037;47.980;10.172;2023-11-21T07:15:29;3.27;;;1.70;;
7983;SDS011;4037;47.980;10.172;2023-11-21T07:17:55;3.03;;;1.90;;
7983;SDS011;4037;47.980;10.172;2023-11-21T07:20:22;3.97;;;1.90;;
7983;SDS011;4037;47.980;10.172;2023-11-21T07:22:48;2.47;;;1.73;;
7983;SDS011;4037;47.980;10.172;2023-11-21T07:25:14;3.57;;;2.13;;
7983;SDS011;4037;47.980;10.172;2023-11-21T07:27:41;2.33;;;2.13;;
7983;SDS011;4037;47.980;10.172;2023-11-21T07:30:07;2.17;;;1.67;;
7983;SDS011;4037;47.980;10.172;2023-11-21T07:32:34;4.67;;;1.70;;
7983;SDS011;4037;47.980;10.172;2023-11-21T07:35:00;4.47;;;2.40;;
7983;SDS011;4037;47.980;10.172;2023-11-21T07:37:27;7.40;;;4.63;;
7983;SDS011;4037;47.980;10.172;2023-11-21T07:39:55;3.87;;;2.07;;
7983;SDS011;4037;47.980;10.172;2023-11-21T07:42:24;5.73;;;2.17;;
7983;SDS011;4037;47.980;10.172;2023-11-21T07:44:51;4.50;;;2.10;;
7983;SDS011;4037;47.980;10.172;2023-11-21T07:47:17;5.67;;;2.00;;
7983;SDS011;4037;47.980;10.172;2023-11-21T07:49:43;3.53;;;2.10;;
7983;SDS011;4037;47.980;10.172;2023-11-21T07:52:10;3.17;;;1.80;;
7983;SDS011;4037;47.980;10.172;2023-11-21T07:54:36;3.37;;;2.13;;
7983;SDS011;4037;47.980;10.172;2023-11-21T07:57:03;5.87;;;2.27;;
7983;SDS011;4037;47.980;10.172;2023-11-21T07:59:29;4.30;;;2.43;;
7983;SDS011;4037;47.980;10.172;2023-11-21T08:01:55;2.00;;;1.67;;
7983;SDS011;4037;47.980;10.172;2023-11-21T08:04:21;2.27;;;1.67;;
7983;SDS011;4037;47.980;10.172;2023-11-21T08:06:48;5.67;;;2.50;;
7983;SDS011;4037;47.980;10.172;2023-11-21T08:09:14;3.33;;;2.10;;
7983;SDS011;4037;47.980;10.172;2023-11-21T08:11:42;3.73;;;1.90;;
7983;SDS011;4037;47.980;10.172;2023-11-21T08:14:08;5.17;;;2.40;;
7983;SDS011;4037;47.980;10.172;2023-11-21T08:16:34;2.83;;;2.10;;
7983;SDS011;4037;47.980;10.172;2023-11-21T08:19:00;6.03;;;2.00;;
7983;SDS011;4037;47.980;10.172;2023-11-21T08:21:26;2.10;;;1.90;;
7983;SDS011;4037;47.980;10.172;2023-11-21T08:23:53;2.40;;;2.00;;
7983;SDS011;4037;47.980;10.172;2023-11-21T08:26:20;2.63;;;1.80;;
7983;SDS011;4037;47.980;10.172;2023-11-21T08:28:46;3.90;;;2.10;;
7983;SDS011;4037;47.980;10.172;2023-11-21T08:31:12;6.23;;;2.47;;
7983;SDS011;4037;47.980;10.172;2023-11-21T08:33:38;2.23;;;1.90;;
7983;SDS011;4037;47.980;10.172;2023-11-21T08:36:08;2.60;;;2.03;;
7983;SDS011;4037;47.980;10.172;2023-11-21T08:38:35;2.20;;;2.00;;
7983;SDS011;4037;47.980;10.172;2023-11-21T08:41:06;4.20;;;1.87;;
7983;SDS011;4037;47.980;10.172;2023-11-21T08:43:35;3.17;;;2.17;;
7983;SDS011;4037;47.980;10.172;2023-11-21T08:46:05;3.60;;;1.93;;
7983;SDS011;4037;47.980;10.172;2023-11-21T08:48:31;3.67;;;2.20;;
7983;SDS011;4037;47.980;10.172;2023-11-21T08:50:57;2.13;;;1.93;;
7983;SDS011;4037;47.980;10.172;2023-11-21T08:53:24;2.67;;;1.53;;
7983;SDS011;4037;47.980;10.172;2023-11-21T08:55:51;1.73;;;1.63;;
7983;SDS011;4037;47.980;10.172;2023-11-21T08:58:18;2.33;;;1.67;;
7983;SDS011;4037;47.980;10.172;2023-11-21T09:00:44;2.17;;;1.47;;
7983;SDS011;4037;47.980;10.172;2023-11-21T09:03:11;1.87;;;1.77;;
7983;SDS011;4037;47.980;10.172;2023-11-21T09:05:37;8.67;;;2.10;;
7983;SDS011;4037;47.980;10.172;2023-11-21T09:08:04;2.97;;;1.63;;
7983;SDS011;4037;47.980;10.172;2023-11-21T09:10:30;1.53;;;1.30;;
7983;SDS011;4037;47.980;10.172;2023-11-21T09:12:56;3.30;;;1.73;;
7983;SDS011;4037;47.980;10.172;2023-11-21T09:15:22;2.70;;;1.60;;
7983;SDS011;4037;47.980;10.172;2023-11-21T09:17:48;4.50;;;1.50;;
7983;SDS011;4037;47.980;10.172;2023-11-21T09:20:14;2.40;;;1.53;;
7983;SDS011;4037;47.980;10.172;2023-11-21T09:22:40;2.10;;;1.90;;
7983;SDS011;4037;47.980;10.172;2023-11-21T09:25:06;4.73;;;1.60;;
7983;SDS011;4037;47.980;10.172;2023-11-21T09:27:33;2.00;;;1.40;;
7983;SDS011;4037;47.980;10.172;2023-11-21T09:30:02;2.73;;;1.67;;
7983;SDS011;4037;47.980;10.172;2023-11-21T09:32:30;2.07;;;1.87;;
7983;SDS011;4037;47.980;10.172;2023-11-21T09:34:56;3.33;;;1.57;;
7983;SDS011;4037;47.980;10.172;2023-11-21T09:37:23;1.63;;;1.50;;
7983;SDS011;4037;47.980;10.172;2023-11-21T09:39:51;6.03;;;1.50;;
7983;SDS011;4037;47.980;10.172;2023-11-21T09:42:25;2.37;;;1.90;;
7983;SDS011;4037;47.980;10.172;2023-11-21T09:44:54;3.00;;;1.50;;
7983;SDS011;4037;47.980;10.172;2023-11-21T09:47:24;1.90;;;1.80;;
7983;SDS011;4037;47.980;10.172;2023-11-21T09:49:50;2.80;;;1.83;;
7983;SDS011;4037;47.980;10.172;2023-11-21T09:52:28;2.33;;;2.07;;
7983;SDS011;4037;47.980;10.172;2023-11-21T09:54:55;2.07;;;1.20;;
7983;SDS011;4037;47.980;10.172;2023-11-21T09:57:24;1.60;;;1.50;;
7983;SDS011;4037;47.980;10.172;2023-11-21T09:59:51;2.60;;;1.87;;
7983;SDS011;4037;47.980;10.172;2023-11-21T10:02:20;4.27;;;1.50;;
7983;SDS011;4037;47.980;10.172;2023-11-21T10:04:47;2.00;;;1.37;;
7983;SDS011;4037;47.980;10.172;2023-11-21T10:07:13;2.00;;;1.90;;
7983;SDS011;4037;47.980;10.172;2023-11-21T10:09:43;2.00;;;1.80;;
7983;SDS011;4037;47.980;10.172;2023-11-21T10:12:09;2.10;;;1.90;;
7983;SDS011;4037;47.980;10.172;2023-11-21T10:14:37;3.10;;;2.30;;
7983;SDS011;4037;47.980;10.172;2023-11-21T10:17:07;2.53;;;1.90;;
7983;SDS011;4037;47.980;10.172;2023-11-21T10:19:33;3.47;;;2.00;;
7983;SDS011;4037;47.980;10.172;2023-11-21T10:22:01;3.00;;;2.10;;
7983;SDS011;4037;47.980;10.172;2023-11-21T10:24:28;2.80;;;2.20;;
7983;SDS011;4037;47.980;10.172;2023-11-21T10:26:54;2.33;;;2.13;;
7983;SDS011;4037;47.980;10.172;2023-11-21T10:29:20;2.60;;;2.40;;
7983;SDS011;4037;47.980;10.172;2023-11-21T10:31:49;2.57;;;2.37;;
7983;SDS011;4037;47.980;10.172;2023-11-21T10:34:19;2.47;;;2.17;;
7983;SDS011;4037;47.980;10.172;2023-11-21T10:36:45;2.67;;;2.27;;
7983;SDS011;4037;47.980;10.172;2023-11-21T10:39:16;6.70;;;3.27;;
7983;SDS011;4037;47.980;10.172;2023-11-21T10:41:45;2.90;;;2.70;;
7983;SDS011;4037;47.980;10.172;2023-11-21T10:44:15;3.93;;;2.47;;
7983;SDS011;4037;47.980;10.172;2023-11-21T10:46:52;2.63;;;2.43;;
7983;SDS011;4037;47.980;10.172;2023-11-21T10:49:21;2.30;;;2.10;;
7983;SDS011;4037;47.980;10.172;2023-11-21T10:51:47;2.60;;;2.40;;
7983;SDS011;4037;47.980;10.172;2023-11-21T10:54:20;3.57;;;2.37;;
7983;SDS011;4037;47.980;10.172;2023-11-21T10:56:50;3.67;;;2.30;;
7983;SDS011;4037;47.980;10.172;2023-11-21T10:59:18;2.80;;;2.30;;
7983;SDS011;4037;47.980;10.172;2023-11-21T11:01:49;2.00;;;1.67;;
7983;SDS011;4037;47.980;10.172;2023-11-21T11:04:20;2.53;;;2.20;;
7983;SDS011;4037;47.980;10.172;2023-11-21T11:06:54;3.50;;;2.50;;
7983;SDS011;4037;47.980;10.172;2023-11-21T11:09:21;4.70;;;2.30;;
7983;SDS011;4037;47.980;10.172;2023-11-21T11:11:47;3.93;;;2.40;;
7983;SDS011;4037;47.980;10.172;2023-11-21T11:14:14;2.53;;;2.23;;
7983;SDS011;4037;47.980;10.172;2023-11-21T11:16:41;4.90;;;2.13;;
7983;SDS011;4037;47.980;10.172;2023-11-21T11:19:08;1.90;;;1.70;;
7983;SDS011;4037;47.980;10.172;2023-11-21T11:34:30;2.90;;;1.80;;
7983;SDS011;4037;47.980;10.172;2023-11-21T11:39:30;2.30;;;1.20;;
7983;SDS011;4037;47.980;10.172;2023-11-21T11:41:57;2.07;;;1.73;;
7983;SDS011;4037;47.980;10.172;2023-11-21T11:47:18;2.87;;;1.37;;
7983;SDS011;4037;47.980;10.172;2023-11-21T11:49:55;2.03;;;1.60;;
7983;SDS011;4037;47.980;10.172;2023-11-21T11:52:40;4.73;;;2.17;;
7983;SDS011;4037;47.980;10.172;2023-11-21T11:55:07;3.40;;;2.00;;
7983;SDS011;4037;47.980;10.172;2023-11-21T11:57:35;1.50;;;1.40;;
7983;SDS011;4037;47.980;10.172;2023-11-21T12:02:47;5.53;;;3.47;;
7983;SDS011;4037;47.980;10.172;2023-11-21T12:05:14;4.30;;;2.73;;
7983;SDS011;4037;47.980;10.172;2023-11-21T12:08:01;2.43;;;1.73;;
7983;SDS011;4037;47.980;10.172;2023-11-21T12:10:27;2.37;;;2.00;;
7983;SDS011;4037;47.980;10.172;2023-11-21T12:13:02;2.03;;;1.70;;
7983;SDS011;4037;47.980;10.172;2023-11-21T12:15:32;2.17;;;1.57;;
7983;SDS011;4037;47.980;10.172;2023-11-21T12:17:58;4.87;;;1.30;;
7983;SDS011;4037;47.980;10.172;2023-11-21T12:20:25;2.43;;;1.37;;
7983;SDS011;4037;47.980;10.172;2023-11-21T12:22:55;1.67;;;1.57;;
7983;SDS011;4037;47.980;10.172;2023-11-21T12:25:24;3.13;;;1.60;;
7983;SDS011;4037;47.980;10.172;2023-11-21T12:27:53;2.70;;;1.33;;
7983;SDS011;4037;47.980;10.172;2023-11-21T12:30:20;1.60;;;1.50;;
7983;SDS011;4037;47.980;10.172;2023-11-21T12:32:52;1.90;;;1.30;;
7983;SDS011;4037;47.980;10.172;2023-11-21T12:35:22;2.00;;;1.40;;
7983;SDS011;4037;47.980;10.172;2023-11-21T12:37:48;1.43;;;1.33;;
7983;SDS011;4037;47.980;10.172;2023-11-21T12:40:15;1.77;;;1.57;;
7983;SDS011;4037;47.980;10.172;2023-11-21T12:42:42;1.87;;;1.50;;
7983;SDS011;4037;47.980;10.172;2023-11-21T12:45:24;3.53;;;1.63;;
7983;SDS011;4037;47.980;10.172;2023-11-21T12:47:51;2.03;;;1.83;;
7983;SDS011;4037;47.980;10.172;2023-11-21T12:50:20;2.70;;;1.10;;
7983;SDS011;4037;47.980;10.172;2023-11-21T12:52:53;1.23;;;1.10;;
7983;SDS011;4037;47.980;10.172;2023-11-21T12:55:20;1.77;;;1.40;;
7983;SDS011;4037;47.980;10.172;2023-11-21T12:57:50;1.20;;;1.10;;
7983;SDS011;4037;47.980;10.172;2023-11-21T13:00:32;0.97;;;0.97;;
7983;SDS011;4037;47.980;10.172;2023-11-21T13:03:02;0.80;;;0.80;;
7983;SDS011;4037;47.980;10.172;2023-11-21T13:07:59;0.90;;;0.80;;
7983;SDS011;4037;47.980;10.172;2023-11-21T13:10:27;2.37;;;1.30;;
7983;SDS011;4037;47.980;10.172;2023-11-21T13:12:57;1.00;;;0.90;;
7983;SDS011;4037;47.980;10.172;2023-11-21T13:15:24;1.73;;;1.03;;
7983;SDS011;4037;47.980;10.172;2023-11-21T13:17:51;1.00;;;0.80;;
7983;SDS011;4037;47.980;10.172;2023-11-21T13:20:18;1.92;;;0.70;;
7983;SDS011;4037;47.980;10.172;2023-11-21T13:22:46;3.28;;;0.90;;
7983;SDS011;4037;47.980;10.172;2023-11-21T13:25:14;0.95;;;0.75;;
7983;SDS011;4037;47.980;10.172;2023-11-21T13:27:42;1.23;;;0.70;;
7983;SDS011;4037;47.980;10.172;2023-11-21T13:30:09;0.98;;;0.80;;
7983;SDS011;4037;47.980;10.172;2023-11-21T13:32:35;1.63;;;0.60;;
7983;SDS011;4037;47.980;10.172;2023-11-21T13:35:01;0.60;;;0.60;;
7983;SDS011;4037;47.980;10.172;2023-11-21T13:37:33;1.00;;;0.70;;
7983;SDS011;4037;47.980;10.172;2023-11-21T13:39:59;1.17;;;0.70;;
7983;SDS011;4037;47.980;10.172;2023-11-21T13:42:28;1.55;;;0.90;;
7983;SDS011;4037;47.980;10.172;2023-11-21T13:44:57;1.30;;;1.00;;
7983;SDS011;4037;47.980;10.172;2023-11-21T13:47:23;0.90;;;0.80;;
7983;SDS011;4037;47.980;10.172;2023-11-21T13:49:54;1.83;;;1.10;;
7983;SDS011;4037;47.980;10.172;2023-11-21T13:52:19;1.47;;;0.90;;
7983;SDS011;4037;47.980;10.172;2023-11-21T13:54:49;1.53;;;1.07;;
7983;SDS011;4037;47.980;10.172;2023-11-21T13:57:15;1.33;;;1.13;;
7983;SDS011;4037;47.980;10.172;2023-11-21T13:59:41;1.10;;;1.00;;
7983;SDS011;4037;47.980;10.172;2023-11-21T14:02:09;0.73;;;0.70;;
7983;SDS011;4037;47.980;10.172;2023-11-21T14:04:42;0.83;;;0.70;;
7983;SDS011;4037;47.980;10.172;2023-11-21T14:07:20;1.43;;;1.00;;
7983;SDS011;4037;47.980;10.172;2023-11-21T14:10:01;3.27;;;1.20;;
7983;SDS011;4037;47.980;10.172;2023-11-21T14:12:28;1.07;;;0.87;;
7983;SDS011;4037;47.980;10.172;2023-11-21T14:14:58;0.70;;;0.70;;
7983;SDS011;4037;47.980;10.172;2023-11-21T14:17:25;0.50;;;0.50;;
7983;SDS011;4037;47.980;10.172;2023-11-21T14:19:52;1.23;;;0.80;;
7983;SDS011;4037;47.980;10.172;2023-11-21T14:22:20;1.70;;;1.50;;
7983;SDS011;4037;47.980;10.172;2023-11-21T14:24:46;1.50;;;1.40;;
7983;SDS011;4037;47.980;10.172;2023-11-21T14:27:13;1.40;;;1.30;;
7983;SDS011;4037;47.980;10.172;2023-11-21T14:29:40;1.07;;;0.97;;
7983;SDS011;4037;47.980;10.172;2023-11-21T14:32:09;0.90;;;0.90;;
7983;SDS011;4037;47.980;10.172;2023-11-21T14:34:35;1.23;;;0.90;;
7983;SDS011;4037;47.980;10.172;2023-11-21T14:37:02;1.60;;;1.50;;
7983;SDS011;4037;47.980;10.172;2023-11-21T14:39:28;1.47;;;1.30;;
7983;SDS011;4037;47.980;10.172;2023-11-21T14:41:55;1.50;;;1.40;;
7983;SDS011;4037;47.980;10.172;2023-11-21T14:44:23;2.30;;;1.93;;
7983;SDS011;4037;47.980;10.172;2023-11-21T14:46:51;2.20;;;2.00;;
7983;SDS011;4037;47.980;10.172;2023-11-21T14:49:19;2.10;;;1.80;;
7983;SDS011;4037;47.980;10.172;2023-11-21T14:51:52;2.30;;;2.10;;
7983;SDS011;4037;47.980;10.172;2023-11-21T14:54:28;3.00;;;1.77;;
7983;SDS011;4037;47.980;10.172;2023-11-21T14:57:11;1.50;;;1.40;;
7983;SDS011;4037;47.980;10.172;2023-11-21T14:59:45;2.63;;;2.40;;
7983;SDS011;4037;47.980;10.172;2023-11-21T15:02:13;1.30;;;1.13;;
7983;SDS011;4037;47.980;10.172;2023-11-21T15:04:43;1.40;;;1.10;;
7983;SDS011;4037;47.980;10.172;2023-11-21T15:07:09;2.07;;;1.40;;
7983;SDS011;4037;47.980;10.172;2023-11-21T15:09:36;1.90;;;1.80;;
7983;SDS011;4037;47.980;10.172;2023-11-21T15:12:10;3.57;;;2.80;;
7983;SDS011;4037;47.980;10.172;2023-11-21T15:14:43;2.63;;;1.87;;
7983;SDS011;4037;47.980;10.172;2023-11-21T15:17:10;2.17;;;1.87;;
7983;SDS011;4037;47.980;10.172;2023-11-21T15:19:40;1.50;;;1.40;;
7983;SDS011;4037;47.980;10.172;2023-11-21T15:22:07;2.43;;;2.23;;
7983;SDS011;4037;47.980;10.172;2023-11-21T15:24:33;1.80;;;1.67;;